Data for 12/28/2007

Time Sea-Level Adjusted Pressure Absolute Pressure Temperature Relative Humidity Dew Point   
(mb) (inHg) (mb) (inHg) (C) (F) (%) (C) (F)
00:05 1011 29.85 840 24.81 -9.3 15.2 54 -17 1.4
00:10 1011 29.85 840 24.81 -9.8 14.3 55 -17.3 0.9
00:15 1011 29.85 840 24.81 -9.7 14.5 56 -16.8 1.7
00:20 1011 29.85 840 24.81 -9.9 14.2 57 -16.8 1.7
00:25 1011 29.85 840 24.81 -10.4 13.3 56 -17.6 0.3
00:30 1011 29.85 840 24.81 -10.2 13.6 55 -17.7 0.2
00:35 1011 29.85 840 24.81 -10.2 13.6 56 -17.5 0.5
00:40 1011 29.85 840 24.81 -10.3 13.6 54 -17.9 -0.1
00:45 1011 29.85 840 24.81 -10.2 13.6 54 -17.8 -0
00:50 1010 29.83 840 24.81 -10.2 13.7 52 -18.2 -0.8
00:55 1010 29.83 840 24.81 -10.1 13.8 54 -17.9 -0.1
01:00 1010 29.83 840 24.81 -10.4 13.3 54 -18 -0.4
01:05 1010 29.83 840 24.81 -10.6 12.9 56 -17.7 0.2
01:10 1010 29.83 840 24.81 -11 12.3 58 -17.6 0.2
01:15 1010 29.83 839 24.78 -11.3 11.7 59 -17.8 0
01:20 1010 29.83 839 24.78 -11.4 11.6 59 -17.9 -0.3
01:25 1010 29.83 839 24.78 -11.3 11.7 58 -18 -0.3
01:30 1010 29.83 839 24.78 -11.3 11.6 59 -17.9 -0.2
01:35 1010 29.83 839 24.78 -11.3 11.7 59 -17.9 -0.2
01:40 1010 29.83 839 24.78 -11.3 11.7 59 -17.8 -0.1
01:45 1010 29.83 839 24.78 -11.4 11.5 59 -17.9 -0.2
01:50 1010 29.83 839 24.78 -11.3 11.6 59 -17.7 0.1
01:55 1010 29.83 839 24.78 -11.4 11.5 60 -17.8 -0
02:00 1010 29.83 839 24.78 -11.4 11.5 59 -17.9 -0.1
02:05 1010 29.83 839 24.78 -11.4 11.6 59 -17.8 -0
02:10 1010 29.83 839 24.78 -11.3 11.6 59 -17.8 -0.1
02:15 1010 29.83 839 24.78 -11.3 11.7 59 -17.8 -0.1
02:20 1010 29.83 839 24.78 -11.2 11.9 59 -17.7 0.2
02:25 1010 29.83 839 24.78 -11.2 11.9 59 -17.6 0.3
02:30 1010 29.83 839 24.78 -11.1 12 59 -17.6 0.4
02:35 1010 29.83 839 24.78 -11 12.1 59 -17.5 0.5
02:40 1010 29.83 839 24.78 -11 12.2 59 -17.4 0.6
02:45 1010 29.83 839 24.78 -11 12.3 60 -17.2 1.1
02:50 1010 29.83 839 24.78 -11 12.3 61 -17.1 1.2
02:55 1010 29.83 839 24.78 -11 12.3 61 -17 1.4
03:00 1010 29.83 839 24.78 -11 12.2 62 -17 1.5
03:05 1010 29.83 839 24.78 -11 12.1 61 -17.1 1.2
03:10 1010 29.83 839 24.78 -10.9 12.4 61 -17.1 1.3
03:15 1010 29.83 839 24.78 -10.9 12.4 61 -17 1.5
03:20 1010 29.83 839 24.78 -10.8 12.6 60 -17.2 1.1
03:25 1010 29.83 839 24.78 -10.6 12.9 60 -17 1.4
03:30 1010 29.83 839 24.78 -10.5 13 58 -17.3 0.9
03:35 1010 29.83 839 24.78 -10.4 13.3 60 -16.8 1.7
03:40 1010 29.83 839 24.78 -10.4 13.3 58 -17.2 1.1
03:45 1010 29.83 839 24.78 -10.4 13.3 59 -17 1.5
03:50 1010 29.83 839 24.78 -10.5 13.1 60 -16.8 1.8
03:55 1010 29.83 839 24.78 -10.7 12.8 58 -17.3 0.8
04:00 1010 29.83 839 24.78 -10.5 13.1 60 -16.9 1.5
04:05 1010 29.83 839 24.78 -10.4 13.3 59 -16.9 1.5
04:10 1010 29.83 839 24.78 -10.4 13.2 59 -17 1.5
04:15 1010 29.83 839 24.78 -10.4 13.3 58 -17.1 1.2
04:20 1010 29.83 839 24.78 -10.3 13.6 59 -16.8 1.7
04:25 1010 29.83 839 24.78 -10.3 13.4 58 -17.1 1.3
04:30 1010 29.83 839 24.78 -10.1 13.8 57 -17.2 1.1
04:35 1010 29.83 839 24.78 -9.9 14.2 56 -17 1.4
04:40 1010 29.83 839 24.78 -9.9 14.1 57 -16.9 1.7
04:45 1010 29.83 839 24.78 -10 14 58 -16.8 1.7
04:50 1010 29.83 839 24.78 -10 14.1 56 -17.1 1.2
04:55 1010 29.83 839 24.78 -9.9 14.2 55 -17.3 0.9
05:00 1010 29.83 839 24.78 -9.8 14.3 57 -16.9 1.6
05:05 1010 29.83 839 24.78 -9.9 14.2 56 -17 1.4
05:10 1010 29.83 839 24.78 -9.9 14.2 57 -16.8 1.7
05:15 1009 29.8 839 24.78 -9.9 14.3 56 -17 1.3
05:20 1009 29.8 839 24.78 -9.8 14.4 56 -16.9 1.5
05:25 1009 29.8 839 24.78 -9.8 14.4 55 -17.2 1.1
05:30 1009 29.8 839 24.78 -9.6 14.7 56 -16.8 1.8
05:35 1009 29.8 839 24.78 -9.6 14.8 56 -16.8 1.7
05:40 1009 29.8 839 24.78 -9.6 14.7 56 -16.9 1.6
05:45 1009 29.8 838 24.75 -9.6 14.8 56 -16.8 1.8
05:50 1009 29.8 838 24.75 -9.5 14.9 56 -16.7 1.9
05:55 1009 29.8 838 24.75 -9.3 15.3 55 -16.7 1.9
06:00 1009 29.8 838 24.75 -9.4 15.1 55 -16.8 1.7
06:05 1009 29.8 838 24.75 -9.3 15.3 55 -16.7 1.9
06:10 1009 29.8 838 24.75 -9.1 15.5 54 -16.8 1.8
06:15 1009 29.8 838 24.75 -9.1 15.6 55 -16.6 2
06:20 1009 29.8 838 24.75 -9.1 15.6 54 -16.8 1.8
06:25 1009 29.8 838 24.75 -9.1 15.7 55 -16.4 2.4
06:30 1009 29.8 838 24.75 -8.9 15.9 54 -16.6 2.1
06:35 1009 29.8 838 24.75 -8.9 16 54 -16.5 2.2
06:40 1009 29.8 838 24.75 -8.9 16 55 -16.5 2.4
06:45 1009 29.8 838 24.75 -8.8 16.2 54 -16.5 2.3
06:50 1009 29.8 838 24.75 -8.9 16 54 -16.5 2.3
06:55 1009 29.8 838 24.75 -8.7 16.4 55 -16.2 2.8
07:00 1009 29.8 838 24.75 -8.7 16.4 55 -16.1 3
07:05 1009 29.8 838 24.75 -9.1 15.7 57 -16.2 2.9
07:10 1009 29.8 838 24.75 -9.3 15.2 59 -16 3.3
07:15 1009 29.8 838 24.75 -9.4 15.1 57 -16.4 2.5
07:20 1009 29.8 838 24.75 -9.1 15.6 58 -16 3.2
07:25 1009 29.8 838 24.75 -9.1 15.7 57 -16.2 2.9
07:30 1009 29.8 838 24.75 -9.1 15.7 59 -15.8 3.6
07:35 1009 29.8 838 24.75 -9.3 15.3 59 -15.9 3.3
07:40 1009 29.8 838 24.75 -9.3 15.3 58 -16.1 2.9
07:45 1009 29.8 838 24.75 -9 15.8 56 -16.2 2.8
07:50 1009 29.8 838 24.75 -8.8 16.3 56 -15.9 3.3
07:55 1009 29.8 838 24.75 -8.6 16.5 55 -16.1 3.1
08:00 1009 29.8 838 24.75 -8.3 17 56 -15.5 4.1
08:05 1009 29.8 838 24.75 -8.2 17.2 56 -15.6 3.9
08:10 1009 29.8 838 24.75 -8.1 17.3 57 -15.3 4.4
08:15 1009 29.8 838 24.75 -8.2 17.2 59 -14.9 5.2
08:20 1009 29.8 838 24.75 -8.4 16.9 62 -14.5 6
08:25 1009 29.8 838 24.75 -8.5 16.6 59 -15.2 4.6
08:30 1009 29.8 838 24.75 -8.3 17.1 58 -15.1 4.9
08:35 1009 29.8 839 24.78 -8.1 17.4 54 -15.8 3.5
08:40 1009 29.8 839 24.78 -7.5 18.5 58 -14.5 5.9
08:45 1009 29.8 839 24.78 -7.6 18.3 62 -13.7 7.4
08:50 1009 29.8 839 24.78 -7.2 19 63 -13.2 8.3
08:55 1009 29.8 839 24.78 -7.3 18.8 62 -13.4 7.8
09:00 1010 29.83 839 24.78 -7.4 18.7 66 -12.6 9.3
09:05 1010 29.83 839 24.78 -7.6 18.4 72 -11.8 10.7
09:10 1010 29.83 839 24.78 -7.7 18.2 74 -11.5 11.4
09:15 1010 29.83 839 24.78 -7.5 18.4 77 -10.9 12.4
09:20 1010 29.83 839 24.78 -7.5 18.6 79 -10.5 13.2
09:25 1010 29.83 839 24.78 -7.3 19 79 -10.3 13.4
09:30 1010 29.83 839 24.78 -7.1 19.3 77 -10.4 13.3
09:35 1010 29.83 839 24.78 -6.9 19.6 77 -10.3 13.5
09:40 1010 29.83 839 24.78 -7 19.4 77 -10.4 13.3
09:45 1010 29.83 839 24.78 -7.4 18.6 79 -10.5 13.1
09:50 1010 29.83 839 24.78 -7.7 18.1 80 -10.6 13
09:55 1010 29.83 839 24.78 -7.9 17.8 82 -10.5 13.2
10:00 1010 29.83 839 24.78 -7.8 17.9 82 -10.4 13.2
10:05 1010 29.83 839 24.78 -7.6 18.3 81 -10.3 13.4
10:10 1010 29.83 839 24.78 -7.6 18.4 81 -10.3 13.5
10:15 1010 29.83 839 24.78 -7.6 18.3 81 -10.3 13.4
10:20 1010 29.83 839 24.78 -7.5 18.5 81 -10.3 13.5
10:25 1010 29.83 839 24.78 -7.4 18.6 83 -9.9 14.2
10:30 1010 29.83 839 24.78 -7.4 18.8 82 -9.9 14.1
10:35 1010 29.83 839 24.78 -7.3 18.9 82 -9.8 14.4
10:40 1010 29.83 839 24.78 -7.3 18.9 82 -9.9 14.2
10:45 1010 29.83 839 24.78 -7.2 19.1 83 -9.7 14.6
10:50 1010 29.83 839 24.78 -7.1 19.3 81 -9.8 14.3
10:55 1010 29.83 839 24.78 -7 19.4 81 -9.7 14.5
11:00 1010 29.83 839 24.78 -7.1 19.3 82 -9.7 14.5
11:05 1010 29.83 839 24.78 -6.9 19.7 79 -9.9 14.2
11:10 1010 29.83 839 24.78 -6.7 20 78 -9.9 14.2
11:15 1010 29.83 839 24.78 -6.3 20.6 76 -9.8 14.3
11:20 1010 29.83 839 24.78 -6.2 20.8 77 -9.6 14.7
11:25 1009 29.8 839 24.78 -6.5 20.4 76 -9.9 14.1
11:30 1009 29.8 839 24.78 -6.3 20.7 75 -10.1 13.8
11:35 1009 29.8 839 24.78 -6.2 20.9 75 -10 14
11:40 1009 29.8 839 24.78 -5.6 22 70 -10.3 13.5
11:45 1009 29.8 839 24.78 -5.4 22.3 70 -10.1 13.8
11:50 1009 29.8 838 24.75 -4.7 23.6 66 -10.1 13.8
11:55 1009 29.8 838 24.75 -4.5 23.9 66 -10 14
12:00 1009 29.8 838 24.75 -4.7 23.5 67 -9.9 14.2
12:05 1009 29.8 838 24.75 -4.8 23.3 68 -9.9 14.2
12:10 1009 29.8 838 24.75 -4.9 23.2 66 -10.2 13.6
12:15 1009 29.8 838 24.75 -5 23 67 -10.3 13.5
12:20 1009 29.8 838 24.75 -4.8 23.4 66 -10.2 13.6
12:25 1009 29.8 838 24.75 -5.1 22.9 67 -10.2 13.7
12:30 1009 29.8 838 24.75 -5 23 67 -10.3 13.5
12:35 1009 29.8 838 24.75 -4.7 23.5 66 -10.1 13.8
12:40 1009 29.8 838 24.75 -4.6 23.6 64 -10.5 13
12:45 1009 29.8 838 24.75 -4.7 23.5 67 -10 14.1
12:50 1009 29.8 838 24.75 -4.8 23.5 64 -10.5 13
12:55 1009 29.8 838 24.75 -4.8 23.4 65 -10.3 13.4
13:00 1009 29.8 838 24.75 -4.8 23.4 66 -10.2 13.6
13:05 1009 29.8 838 24.75 -4.5 24 60 -11.1 12.1
13:10 1009 29.8 838 24.75 -4.4 24.2 59 -11.2 11.8
13:15 1009 29.8 838 24.75 -4.3 24.3 61 -10.7 12.7
13:20 1009 29.8 838 24.75 -4.3 24.2 58 -11.3 11.6
13:25 1009 29.8 838 24.75 -4.6 23.7 61 -11 12.1
13:30 1009 29.8 838 24.75 -4.6 23.7 62 -10.8 12.6
13:35 1009 29.8 838 24.75 -4.7 23.5 61 -11.1 12.1
13:40 1009 29.8 838 24.75 -4.9 23.3 62 -11.1 11.9
13:45 1009 29.8 838 24.75 -4.7 23.5 63 -10.8 12.6
13:50 1009 29.8 838 24.75 -4.9 23.2 67 -10.1 13.9
13:55 1009 29.8 838 24.75 -5.4 22.2 69 -10.3 13.5
14:00 1009 29.8 838 24.75 -5.3 22.5 67 -10.4 13.3
14:05 1009 29.8 838 24.75 -4.9 23.1 65 -10.6 12.9
14:10 1008 29.77 838 24.75 -4.8 23.5 64 -10.5 13.2
14:15 1008 29.77 838 24.75 -4.9 23.2 63 -10.8 12.5
14:20 1008 29.77 838 24.75 -4.8 23.4 63 -10.8 12.6
14:25 1009 29.8 838 24.75 -4.4 24 61 -10.8 12.5
14:30 1009 29.8 838 24.75 -4.7 23.6 63 -10.6 12.9
14:35 1009 29.8 838 24.75 -4.7 23.5 64 -10.5 13.2
14:40 1008 29.77 838 24.75 -4.6 23.7 63 -10.7 12.8
14:45 1008 29.77 838 24.75 -4.6 23.7 62 -10.7 12.7
14:50 1008 29.77 838 24.75 -4.6 23.7 63 -10.6 12.9
14:55 1009 29.8 838 24.75 -4.8 23.4 64 -10.6 12.9
15:00 1009 29.8 838 24.75 -4.6 23.7 61 -10.9 12.3
15:05 1009 29.8 838 24.75 -4.4 24 61 -10.8 12.6
15:10 1009 29.8 838 24.75 -4.2 24.4 61 -10.7 12.7
15:15 1009 29.8 838 24.75 -4.1 24.6 61 -10.7 12.8
15:20 1009 29.8 838 24.75 -4.2 24.5 62 -10.4 13.3
15:25 1009 29.8 838 24.75 -4.1 24.5 61 -10.6 12.9
15:30 1009 29.8 838 24.75 -3.8 25.1 60 -10.5 13.1
15:35 1009 29.8 838 24.75 -3.7 25.4 59 -10.7 12.8
15:40 1009 29.8 838 24.75 -4 24.9 61 -10.4 13.3
15:45 1009 29.8 838 24.75 -4.3 24.3 62 -10.6 12.9
15:50 1009 29.8 838 24.75 -4.1 24.5 61 -10.6 12.9
15:55 1009 29.8 838 24.75 -4 24.8 60 -10.6 12.9
16:00 1009 29.8 838 24.75 -4 24.9 60 -10.6 13
16:05 1009 29.8 838 24.75 -3.6 25.6 56 -11.2 11.9
16:10 1009 29.8 838 24.75 -3.4 25.9 57 -10.6 12.9
16:15 1009 29.8 838 24.75 -4.2 24.4 60 -10.9 12.3
16:20 1009 29.8 838 24.75 -4.7 23.6 60 -11.4 11.5
16:25 1009 29.8 838 24.75 -5 23.1 62 -11.2 11.8
16:30 1009 29.8 838 24.75 -5 23 62 -11.1 11.9
16:35 1009 29.8 838 24.75 -5 22.9 62 -11.3 11.7
16:40 1009 29.8 838 24.75 -5 23 62 -11.3 11.7
16:45 1009 29.8 838 24.75 -5 23.1 63 -10.9 12.3
16:50 1009 29.8 838 24.75 -5 23 63 -11 12.2
16:55 1009 29.8 838 24.75 -5.1 22.9 63 -11 12.1
17:00 1009 29.8 838 24.75 -5.1 22.8 64 -11 12.2
17:05 1009 29.8 838 24.75 -5.2 22.6 63 -11.2 11.8
17:10 1009 29.8 838 24.75 -5.3 22.4 64 -11.1 12
17:15 1009 29.8 838 24.75 -5.4 22.2 62 -11.6 11.1
17:20 1009 29.8 838 24.75 -5.5 22.2 62 -11.7 11
17:25 1009 29.8 838 24.75 -5.4 22.2 63 -11.3 11.6
17:30 1009 29.8 838 24.75 -5.6 22 63 -11.6 11.1
17:35 1009 29.8 838 24.75 -5.6 21.9 62 -11.7 11
17:40 1009 29.8 838 24.75 -5.6 21.9 64 -11.4 11.5
17:45 1009 29.8 838 24.75 -5.6 21.9 64 -11.4 11.5
17:50 1009 29.8 838 24.75 -5.6 21.9 63 -11.6 11.1
17:55 1009 29.8 838 24.75 -5.5 22 63 -11.5 11.2
18:00 1009 29.8 838 24.75 -5.5 22.1 63 -11.6 11.2
18:05 1009 29.8 838 24.75 -5.5 22 63 -11.5 11.3
18:10 1009 29.8 838 24.75 -5.6 22 63 -11.6 11.1
18:15 1009 29.8 838 24.75 -5.6 21.9 64 -11.4 11.4
18:20 1009 29.8 838 24.75 -5.6 21.8 64 -11.4 11.4
18:25 1009 29.8 838 24.75 -5.6 21.9 63 -11.6 11.2
18:30 1009 29.8 838 24.75 -5.6 21.9 64 -11.3 11.6
18:35 1009 29.8 838 24.75 -5.6 21.9 64 -11.4 11.4
18:40 1009 29.8 838 24.75 -5.6 22 62 -11.7 10.9
18:45 1009 29.8 838 24.75 -5.5 22.1 63 -11.5 11.3
18:50 1009 29.8 838 24.75 -5.6 22 65 -11.1 12
18:55 1009 29.8 838 24.75 -5.6 21.9 65 -11.2 11.8
19:00 1009 29.8 838 24.75 -5.6 22 62 -11.7 11
19:05 1009 29.8 838 24.75 -5.5 22.2 65 -11.1 12.1
19:10 1009 29.8 838 24.75 -5.4 22.2 63 -11.4 11.4
19:15 1009 29.8 838 24.75 -5.5 22.2 64 -11.3 11.7
19:20 1009 29.8 838 24.75 -5.5 22.1 65 -11.2 11.9
19:25 1009 29.8 838 24.75 -5.4 22.2 63 -11.3 11.7
19:30 1009 29.8 838 24.75 -5.6 22 63 -11.5 11.2
19:35 1009 29.8 838 24.75 -5.8 21.6 64 -11.6 11.1
19:40 1009 29.8 838 24.75 -5.8 21.6 64 -11.6 11.1
19:45 1009 29.8 838 24.75 -5.8 21.6 64 -11.6 11.2
19:50 1009 29.8 838 24.75 -5.8 21.6 64 -11.5 11.4
19:55 1009 29.8 838 24.75 -5.8 21.6 66 -11.2 11.8
20:00 1009 29.8 838 24.75 -6 21.3 66 -11.3 11.7
20:05 1009 29.8 838 24.75 -6 21.1 65 -11.5 11.3
20:10 1009 29.8 838 24.75 -6 21.1 65 -11.6 11.1
20:15 1009 29.8 838 24.75 -5.9 21.3 63 -11.9 10.6
20:20 1009 29.8 838 24.75 -5.7 21.7 60 -12.4 9.7
20:25 1009 29.8 838 24.75 -5.2 22.7 55 -12.9 8.8
20:30 1009 29.8 838 24.75 -4.7 23.6 56 -12.1 10.2
20:35 1009 29.8 838 24.75 -4.7 23.6 58 -11.8 10.8
20:40 1009 29.8 838 24.75 -4.9 23.1 59 -11.7 11
20:45 1009 29.8 838 24.75 -5.1 22.9 62 -11.3 11.6
20:50 1009 29.8 838 24.75 -5.3 22.5 63 -11.3 11.6
20:55 1009 29.8 838 24.75 -5.5 22.1 64 -11.3 11.6
21:00 1009 29.8 838 24.75 -5.7 21.8 64 -11.4 11.4
21:05 1009 29.8 838 24.75 -5.8 21.5 64 -11.6 11.2
21:10 1009 29.8 838 24.75 -6 21.2 65 -11.5 11.3
21:15 1009 29.8 838 24.75 -6 21.2 65 -11.6 11.2
21:20 1009 29.8 838 24.75 -5.9 21.4 63 -11.8 10.8
21:25 1009 29.8 838 24.75 -5.8 21.6 65 -11.4 11.5
21:30 1009 29.8 838 24.75 -5.8 21.5 65 -11.5 11.4
21:35 1009 29.8 838 24.75 -6 21.2 65 -11.5 11.2
21:40 1009 29.8 838 24.75 -6.2 20.9 66 -11.4 11.4
21:45 1009 29.8 838 24.75 -6.3 20.6 68 -11.4 11.5
21:50 1009 29.8 838 24.75 -6.4 20.5 66 -11.8 10.7
21:55 1009 29.8 838 24.75 -6.3 20.6 68 -11.3 11.6
22:00 1009 29.8 838 24.75 -6.5 20.3 67 -11.6 11.1
22:05 1009 29.8 838 24.75 -6.5 20.3 67 -11.6 11.2
22:10 1009 29.8 838 24.75 -6.5 20.2 68 -11.6 11.1
22:15 1009 29.8 838 24.75 -6.6 20.1 66 -12 10.4
22:20 1009 29.8 838 24.75 -6.5 20.3 63 -12.3 9.8
22:25 1008 29.77 838 24.75 -6.2 20.8 60 -12.7 9.1
22:30 1008 29.77 838 24.75 -5.9 21.3 61 -12.3 9.8
22:35 1009 29.8 838 24.75 -5.8 21.5 60 -12.3 9.8
22:40 1009 29.8 838 24.75 -5.8 21.5 62 -12.1 10.3
22:45 1009 29.8 838 24.75 -5.9 21.5 60 -12.4 9.7
22:50 1009 29.8 838 24.75 -5.7 21.7 59 -12.5 9.6
22:55 1009 29.8 838 24.75 -5.8 21.6 60 -12.3 9.9
23:00 1009 29.8 838 24.75 -5.7 21.8 59 -12.5 9.5
23:05 1009 29.8 838 24.75 -5.4 22.2 58 -12.5 9.5
23:10 1009 29.8 838 24.75 -5.5 22.1 57 -12.6 9.2
23:15 1009 29.8 838 24.75 -5.5 22.1 59 -12.4 9.7
23:20 1009 29.8 838 24.75 -5.6 22 60 -12.2 10
23:25 1009 29.8 838 24.75 -5.6 21.9 59 -12.4 9.7
23:30 1009 29.8 838 24.75 -5.6 21.9 56 -13.1 8.4
23:35 1009 29.8 838 24.75 -5.2 22.7 53 -13.4 7.8
23:40 1008 29.77 838 24.75 -4.8 23.3 52 -13.3 8.1
23:45 1008 29.77 838 24.75 -4.6 23.7 51 -13.2 8.2
23:50 1008 29.77 837 24.72 -4.3 24.3 48 -13.6 7.5
23:55 1008 29.77 837 24.72 -4.1 24.7 47 -13.7 7.3
24:00 1008 29.77 837 24.72 -4 24.8 47 -13.6 7.5